Charleston, Utah
Current Conditions -  °F | °C
As of 7:55 AM on Tuesday 21 Oct 2014 (Local Time) from K36U Reporting Station
Thunderstorm Thunderstorm  
Wind Chill: 50°   Ceiling: 7000
Heat Index: 50°   Visibility: 10mi
Dew Point: 41°   Wind: 3mph
Humidity: 71%   Direction: 360°N
Pressure: 29.98"   Gusts: NA
Location:  40.2386°N, 111.149°W
Report Text: K36U 211355Z AUTO 36003KT 10SM -VCTSDZ BKN070 BKN080 OVC100 10/05 A2998 RMK AO2 LTG DSNT S
Loading
Personal Weather Stations






























Interactive Weather Map
Tropical Storm Tracking
New forecast layout! Learn more

10-Day Weather Forecast

Advertisements
Track Severe Weather on mobile